Time,TemperatureF,DewpointF,PressureIn,WindDirection,WindDirectionDegrees,WindSpeedMPH,WindSpeedGustMPH,Humidity,HourlyPrecipIn,Conditions,Clouds,dailyrainin,SoftwareType,DateUTC
2013-10-23 00:01:00,35.9,34.6,29.77,West,273,0.0,1.0,95,0.00,,,0.00,WUHU216DAVISVP2,2013-10-23 04:01:00,
2013-10-23 00:06:00,35.7,34.6,29.77,West,273,0.0,1.0,96,0.00,,,0.00,WUHU216DAVISVP2,2013-10-23 04:06:00,
2013-10-23 00:11:00,35.6,34.3,29.77,West,273,0.0,1.0,95,0.00,,,0.00,WUHU216DAVISVP2,2013-10-23 04:11:00,
2013-10-23 00:16:00,35.5,34.4,29.76,West,273,0.0,1.0,96,0.00,,,0.00,WUHU216DAVISVP2,2013-10-23 04:16:00,
2013-10-23 00:21:00,35.4,34.3,29.76,West,273,0.0,0.0,96,0.00,,,0.00,WUHU216DAVISVP2,2013-10-23 04:21:00,
2013-10-23 00:26:00,35.3,34.2,29.77,West,273,0.0,0.0,96,0.00,,,0.00,WUHU216DAVISVP2,2013-10-23 04:26:00,
2013-10-23 00:31:00,35.3,34.2,29.77,West,273,1.0,1.0,96,0.00,,,0.00,WUHU216DAVISVP2,2013-10-23 04:31:00,
2013-10-23 00:36:00,35.3,34.2,29.76,West,273,0.0,1.0,96,0.00,,,0.00,WUHU216DAVISVP2,2013-10-23 04:36:00,
2013-10-23 00:41:00,35.4,34.3,29.76,West,273,0.0,1.0,96,0.00,,,0.00,WUHU216DAVISVP2,2013-10-23 04:41:00,
2013-10-23 00:46:00,35.5,34.4,29.77,West,273,0.0,1.0,96,0.00,,,0.00,WUHU216DAVISVP2,2013-10-23 04:46:00,
2013-10-23 00:51:00,35.5,34.4,29.77,West,273,0.0,1.0,96,0.00,,,0.00,WUHU216DAVISVP2,2013-10-23 04:51:00,
2013-10-23 00:56:00,35.4,34.3,29.77,West,273,0.0,1.0,96,0.00,,,0.00,WUHU216DAVISVP2,2013-10-23 04:56:00,
2013-10-23 01:01:00,35.3,34.2,29.77,West,273,0.0,0.0,96,0.00,,,0.00,WUHU216DAVISVP2,2013-10-23 05:01:00,
2013-10-23 01:06:00,35.3,34.2,29.77,West,273,0.0,0.0,96,0.00,,,0.00,WUHU216DAVISVP2,2013-10-23 05:06:00,
2013-10-23 01:11:00,35.3,34.2,29.77,West,273,0.0,0.0,96,0.00,,,0.00,WUHU216DAVISVP2,2013-10-23 05:11:00,
2013-10-23 01:16:00,35.4,34.6,29.77,West,273,0.0,0.0,97,0.00,,,0.00,WUHU216DAVISVP2,2013-10-23 05:16:00,
2013-10-23 01:21:00,35.3,34.2,29.76,West,273,0.0,1.0,96,0.00,,,0.00,WUHU216DAVISVP2,2013-10-23 05:21:00,
2013-10-23 01:26:00,35.3,34.5,29.76,West,273,0.0,1.0,97,0.00,,,0.00,WUHU216DAVISVP2,2013-10-23 05:26:00,
2013-10-23 01:31:00,35.3,34.5,29.76,West,273,0.0,1.0,97,0.00,,,0.00,WUHU216DAVISVP2,2013-10-23 05:31:00,
2013-10-23 01:36:00,35.2,34.1,29.76,West,273,0.0,1.0,96,0.00,,,0.00,WUHU216DAVISVP2,2013-10-23 05:36:00,
2013-10-23 01:41:00,35.2,34.4,29.76,West,273,0.0,1.0,97,0.00,,,0.00,WUHU216DAVISVP2,2013-10-23 05:41:00,
2013-10-23 01:46:00,35.2,34.1,29.76,West,273,0.0,1.0,96,0.00,,,0.00,WUHU216DAVISVP2,2013-10-23 05:46:00,
2013-10-23 01:51:00,35.2,34.4,29.76,West,273,0.0,1.0,97,0.00,,,0.00,WUHU216DAVISVP2,2013-10-23 05:51:00,
2013-10-23 01:56:00,35.3,34.5,29.76,West,273,0.0,0.0,97,0.00,,,0.00,WUHU216DAVISVP2,2013-10-23 05:56:00,
2013-10-23 02:02:00,35.2,34.1,29.76,West,273,0.0,0.0,96,0.00,,,0.00,WUHU216DAVISVP2,2013-10-23 06:02:00,
2013-10-23 02:07:00,35.1,34.0,29.77,West,273,0.0,0.0,96,0.00,,,0.00,WUHU216DAVISVP2,2013-10-23 06:07:00,
2013-10-23 02:12:00,35.1,34.0,29.77,West,273,0.0,0.0,96,0.00,,,0.00,WUHU216DAVISVP2,2013-10-23 06:12:00,
2013-10-23 02:17:00,35.1,34.3,29.76,West,273,0.0,0.0,97,0.00,,,0.00,WUHU216DAVISVP2,2013-10-23 06:17:00,
2013-10-23 02:22:00,35.1,34.3,29.77,West,273,0.0,0.0,97,0.00,,,0.00,WUHU216DAVISVP2,2013-10-23 06:22:00,
2013-10-23 02:27:00,35.1,34.3,29.77,West,273,0.0,1.0,97,0.00,,,0.00,WUHU216DAVISVP2,2013-10-23 06:27:00,
2013-10-23 02:32:00,35.2,34.4,29.77,West,273,0.0,1.0,97,0.00,,,0.00,WUHU216DAVISVP2,2013-10-23 06:32:00,
2013-10-23 02:37:00,35.2,34.4,29.77,West,273,0.0,1.0,97,0.00,,,0.00,WUHU216DAVISVP2,2013-10-23 06:37:00,
2013-10-23 02:42:00,35.1,34.3,29.77,West,273,0.0,1.0,97,0.00,,,0.00,WUHU216DAVISVP2,2013-10-23 06:42:00,
2013-10-23 02:47:00,35.0,33.9,29.77,West,273,0.0,0.0,96,0.00,,,0.00,WUHU216DAVISVP2,2013-10-23 06:47:00,
2013-10-23 02:52:00,34.9,34.1,29.76,West,273,0.0,0.0,97,0.00,,,0.00,WUHU216DAVISVP2,2013-10-23 06:52:00,
2013-10-23 02:57:00,34.8,34.0,29.77,West,273,0.0,0.0,97,0.00,,,0.00,WUHU216DAVISVP2,2013-10-23 06:57:00,
2013-10-23 03:02:00,34.8,34.0,29.77,West,273,0.0,0.0,97,0.00,,,0.00,WUHU216DAVISVP2,2013-10-23 07:02:00,
2013-10-23 03:07:00,34.8,34.0,29.77,West,273,0.0,0.0,97,0.00,,,0.00,WUHU216DAVISVP2,2013-10-23 07:07:00,
2013-10-23 03:12:00,34.9,34.1,29.77,West,273,0.0,0.0,97,0.00,,,0.00,WUHU216DAVISVP2,2013-10-23 07:12:00,
2013-10-23 03:17:00,34.9,34.1,29.77,West,273,0.0,0.0,97,0.00,,,0.00,WUHU216DAVISVP2,2013-10-23 07:17:00,
2013-10-23 03:22:00,35.0,34.2,29.77,West,273,0.0,0.0,97,0.00,,,0.00,WUHU216DAVISVP2,2013-10-23 07:22:00,
2013-10-23 03:27:00,35.1,34.3,29.77,West,273,0.0,0.0,97,0.00,,,0.00,WUHU216DAVISVP2,2013-10-23 07:27:00,
2013-10-23 03:32:00,35.2,34.4,29.77,West,273,0.0,0.0,97,0.00,,,0.00,WUHU216DAVISVP2,2013-10-23 07:32:00,
2013-10-23 03:37:00,35.3,34.5,29.76,West,273,0.0,1.0,97,0.00,,,0.00,WUHU216DAVISVP2,2013-10-23 07:37:00,
2013-10-23 03:42:00,35.3,34.5,29.76,West,273,0.0,1.0,97,0.00,,,0.00,WUHU216DAVISVP2,2013-10-23 07:42:00,
2013-10-23 03:47:00,35.4,34.6,29.76,West,273,0.0,1.0,97,0.00,,,0.00,WUHU216DAVISVP2,2013-10-23 07:47:00,
2013-10-23 03:52:00,35.3,34.5,29.76,West,273,0.0,1.0,97,0.00,,,0.00,WUHU216DAVISVP2,2013-10-23 07:52:00,
2013-10-23 03:57:00,35.2,34.4,29.76,West,273,0.0,0.0,97,0.00,,,0.00,WUHU216DAVISVP2,2013-10-23 07:57:00,
2013-10-23 04:02:00,35.1,34.3,29.76,West,273,0.0,0.0,97,0.00,,,0.00,WUHU216DAVISVP2,2013-10-23 08:02:00,
2013-10-23 04:07:00,35.0,34.2,29.75,West,273,0.0,0.0,97,0.00,,,0.00,WUHU216DAVISVP2,2013-10-23 08:07:00,
2013-10-23 04:12:00,34.9,34.1,29.75,West,273,0.0,0.0,97,0.00,,,0.00,WUHU216DAVISVP2,2013-10-23 08:12:00,
2013-10-23 04:17:00,34.8,34.0,29.75,West,273,0.0,0.0,97,0.00,,,0.00,WUHU216DAVISVP2,2013-10-23 08:17:00,
2013-10-23 04:22:00,34.6,33.5,29.75,West,273,0.0,0.0,96,0.00,,,0.00,WUHU216DAVISVP2,2013-10-23 08:22:00,
2013-10-23 04:27:00,34.4,33.3,29.75,West,273,0.0,0.0,96,0.00,,,0.00,WUHU216DAVISVP2,2013-10-23 08:27:00,
2013-10-23 04:32:00,34.3,33.5,29.75,West,273,0.0,0.0,97,0.00,,,0.00,WUHU216DAVISVP2,2013-10-23 08:32:00,
2013-10-23 04:37:00,34.1,33.0,29.75,West,273,0.0,0.0,96,0.00,,,0.00,WUHU216DAVISVP2,2013-10-23 08:37:00,
2013-10-23 04:42:00,34.0,32.9,29.75,West,273,0.0,0.0,96,0.00,,,0.00,WUHU216DAVISVP2,2013-10-23 08:42:00,
2013-10-23 04:47:00,33.8,32.7,29.75,West,273,0.0,0.0,96,0.00,,,0.00,WUHU216DAVISVP2,2013-10-23 08:47:00,
2013-10-23 04:52:00,33.7,32.9,29.75,West,273,0.0,0.0,97,0.00,,,0.00,WUHU216DAVISVP2,2013-10-23 08:52:00,
2013-10-23 04:57:00,33.5,32.4,29.75,West,273,0.0,0.0,96,0.00,,,0.00,WUHU216DAVISVP2,2013-10-23 08:57:00,
2013-10-23 05:02:00,33.4,32.3,29.75,West,273,0.0,0.0,96,0.00,,,0.00,WUHU216DAVISVP2,2013-10-23 09:02:00,
2013-10-23 05:07:00,33.4,32.6,29.74,West,273,0.0,0.0,97,0.00,,,0.00,WUHU216DAVISVP2,2013-10-23 09:07:00,
2013-10-23 05:12:00,33.4,32.6,29.75,West,273,0.0,0.0,97,0.00,,,0.00,WUHU216DAVISVP2,2013-10-23 09:12:00,
2013-10-23 05:17:00,33.3,32.5,29.74,West,273,0.0,0.0,97,0.00,,,0.00,WUHU216DAVISVP2,2013-10-23 09:17:00,
2013-10-23 05:22:00,33.2,32.4,29.74,West,273,0.0,0.0,97,0.00,,,0.00,WUHU216DAVISVP2,2013-10-23 09:22:00,
2013-10-23 05:27:00,33.1,32.3,29.74,West,273,0.0,0.0,97,0.00,,,0.00,WUHU216DAVISVP2,2013-10-23 09:27:00,
2013-10-23 05:32:00,32.9,32.1,29.74,West,273,0.0,0.0,97,0.00,,,0.00,WUHU216DAVISVP2,2013-10-23 09:32:00,
2013-10-23 05:37:00,32.8,32.0,29.74,West,273,0.0,0.0,97,0.00,,,0.00,WUHU216DAVISVP2,2013-10-23 09:37:00,
2013-10-23 05:42:00,32.6,31.8,29.74,West,273,0.0,0.0,97,0.00,,,0.00,WUHU216DAVISVP2,2013-10-23 09:42:00,
2013-10-23 05:47:00,32.6,31.8,29.74,West,273,0.0,0.0,97,0.00,,,0.00,WUHU216DAVISVP2,2013-10-23 09:47:00,
2013-10-23 05:52:00,32.6,31.8,29.74,West,273,0.0,0.0,97,0.00,,,0.00,WUHU216DAVISVP2,2013-10-23 09:52:00,
2013-10-23 05:57:00,32.5,31.7,29.74,West,273,0.0,0.0,97,0.00,,,0.00,WUHU216DAVISVP2,2013-10-23 09:57:00,
2013-10-23 06:02:00,32.4,31.6,29.74,West,273,0.0,0.0,97,0.00,,,0.00,WUHU216DAVISVP2,2013-10-23 10:02:00,
2013-10-23 06:07:00,32.2,31.4,29.74,West,273,0.0,0.0,97,0.00,,,0.00,WUHU216DAVISVP2,2013-10-23 10:07:00,
2013-10-23 06:12:00,32.1,31.3,29.74,West,273,0.0,1.0,97,0.00,,,0.00,WUHU216DAVISVP2,2013-10-23 10:12:00,
2013-10-23 06:17:00,32.1,31.3,29.74,West,273,0.0,1.0,97,0.00,,,0.00,WUHU216DAVISVP2,2013-10-23 10:17:00,
2013-10-23 06:22:00,32.1,31.3,29.74,West,273,0.0,1.0,97,0.00,,,0.00,WUHU216DAVISVP2,2013-10-23 10:22:00,
2013-10-23 06:27:00,32.2,31.4,29.74,West,273,0.0,1.0,97,0.00,,,0.00,WUHU216DAVISVP2,2013-10-23 10:27:00,
2013-10-23 06:32:00,32.1,31.3,29.74,West,273,0.0,0.0,97,0.00,,,0.00,WUHU216DAVISVP2,2013-10-23 10:32:00,
2013-10-23 06:37:00,31.9,31.1,29.74,West,273,0.0,0.0,97,0.00,,,0.00,WUHU216DAVISVP2,2013-10-23 10:37:00,
2013-10-23 06:42:00,31.7,30.9,29.74,West,273,0.0,0.0,97,0.00,,,0.00,WUHU216DAVISVP2,2013-10-23 10:42:00,
2013-10-23 06:47:00,31.6,30.8,29.74,West,273,0.0,0.0,97,0.00,,,0.00,WUHU216DAVISVP2,2013-10-23 10:47:00,
2013-10-23 06:52:00,31.4,30.6,29.74,West,273,0.0,0.0,97,0.00,,,0.00,WUHU216DAVISVP2,2013-10-23 10:52:00,
2013-10-23 06:57:00,31.4,30.6,29.74,West,273,0.0,0.0,97,0.00,,,0.00,WUHU216DAVISVP2,2013-10-23 10:57:00,
2013-10-23 07:02:00,31.3,30.5,29.74,West,273,0.0,0.0,97,0.00,,,0.00,WUHU216DAVISVP2,2013-10-23 11:02:00,
2013-10-23 07:07:00,31.3,30.5,29.74,West,273,0.0,0.0,97,0.00,,,0.00,WUHU216DAVISVP2,2013-10-23 11:07:00,
2013-10-23 07:12:00,31.2,30.4,29.73,West,273,0.0,0.0,97,0.00,,,0.00,WUHU216DAVISVP2,2013-10-23 11:12:00,
2013-10-23 07:17:00,31.2,30.4,29.74,West,273,0.0,0.0,97,0.00,,,0.00,WUHU216DAVISVP2,2013-10-23 11:17:00,
2013-10-23 07:22:00,31.0,30.2,29.74,West,273,0.0,0.0,97,0.00,,,0.00,WUHU216DAVISVP2,2013-10-23 11:22:00,
2013-10-23 07:27:00,31.0,30.2,29.73,West,273,0.0,0.0,97,0.00,,,0.00,WUHU216DAVISVP2,2013-10-23 11:27:00,
2013-10-23 07:32:00,30.9,30.1,29.73,West,273,0.0,0.0,97,0.00,,,0.00,WUHU216DAVISVP2,2013-10-23 11:32:00,
2013-10-23 07:37:00,30.9,30.1,29.73,West,273,0.0,0.0,97,0.00,,,0.00,WUHU216DAVISVP2,2013-10-23 11:37:00,
2013-10-23 07:42:00,30.9,30.1,29.73,West,273,0.0,0.0,97,0.00,,,0.00,WUHU216DAVISVP2,2013-10-23 11:42:00,
2013-10-23 07:47:00,30.9,30.1,29.73,West,273,0.0,0.0,97,0.00,,,0.00,WUHU216DAVISVP2,2013-10-23 11:47:00,
2013-10-23 07:52:00,31.0,30.2,29.73,West,273,0.0,0.0,97,0.00,,,0.00,WUHU216DAVISVP2,2013-10-23 11:52:00,
2013-10-23 07:57:00,31.1,30.3,29.74,West,273,0.0,0.0,97,0.00,,,0.00,WUHU216DAVISVP2,2013-10-23 11:57:00,
2013-10-23 08:02:00,31.2,30.4,29.74,West,273,0.0,0.0,97,0.00,,,0.00,WUHU216DAVISVP2,2013-10-23 12:02:00,
2013-10-23 08:07:00,31.3,30.5,29.74,West,273,0.0,0.0,97,0.00,,,0.00,WUHU216DAVISVP2,2013-10-23 12:07:00,
2013-10-23 08:12:00,31.5,31.0,29.75,West,273,0.0,0.0,98,0.00,,,0.00,WUHU216DAVISVP2,2013-10-23 12:12:00,
2013-10-23 08:17:00,31.7,31.2,29.75,West,273,0.0,0.0,98,0.00,,,0.00,WUHU216DAVISVP2,2013-10-23 12:17:00,
2013-10-23 08:22:00,32.0,31.5,29.75,West,273,0.0,0.0,98,0.00,,,0.00,WUHU216DAVISVP2,2013-10-23 12:22:00,
2013-10-23 08:27:00,32.4,31.9,29.75,West,273,0.0,0.0,98,0.00,,,0.00,WUHU216DAVISVP2,2013-10-23 12:27:00,
2013-10-23 08:32:00,32.9,32.4,29.75,West,273,0.0,0.0,98,0.00,,,0.00,WUHU216DAVISVP2,2013-10-23 12:32:00,
2013-10-23 08:37:00,33.5,33.0,29.75,West,273,0.0,0.0,98,0.00,,,0.00,WUHU216DAVISVP2,2013-10-23 12:37:00,
2013-10-23 08:42:00,34.0,33.5,29.75,West,273,0.0,0.0,98,0.00,,,0.00,WUHU216DAVISVP2,2013-10-23 12:42:00,
2013-10-23 08:47:00,34.3,33.8,29.75,West,273,0.0,0.0,98,0.00,,,0.00,WUHU216DAVISVP2,2013-10-23 12:47:00,
2013-10-23 08:52:00,34.8,34.5,29.75,West,273,0.0,0.0,99,0.00,,,0.00,WUHU216DAVISVP2,2013-10-23 12:52:00,
2013-10-23 08:57:00,35.4,35.1,29.75,West,273,0.0,0.0,99,0.00,,,0.00,WUHU216DAVISVP2,2013-10-23 12:57:00,
2013-10-23 09:02:00,36.1,35.8,29.74,West,273,0.0,0.0,99,0.00,,,0.00,WUHU216DAVISVP2,2013-10-23 13:02:00,
2013-10-23 09:07:00,36.5,36.2,29.74,West,273,0.0,0.0,99,0.00,,,0.00,WUHU216DAVISVP2,2013-10-23 13:07:00,
2013-10-23 09:12:00,37.1,36.8,29.74,West,273,0.0,0.0,99,0.00,,,0.00,WUHU216DAVISVP2,2013-10-23 13:12:00,
2013-10-23 09:17:00,37.4,37.1,29.74,West,273,0.0,0.0,99,0.00,,,0.00,WUHU216DAVISVP2,2013-10-23 13:17:00,
2013-10-23 09:22:00,37.9,37.6,29.74,West,273,0.0,0.0,99,0.00,,,0.00,WUHU216DAVISVP2,2013-10-23 13:22:00,
2013-10-23 09:27:00,38.3,37.8,29.74,West,273,0.0,0.0,98,0.00,,,0.00,WUHU216DAVISVP2,2013-10-23 13:27:00,
2013-10-23 09:32:00,38.9,38.4,29.74,West,273,0.0,0.0,98,0.00,,,0.00,WUHU216DAVISVP2,2013-10-23 13:32:00,
2013-10-23 09:37:00,39.6,38.6,29.73,West,273,0.0,0.0,96,0.00,,,0.00,WUHU216DAVISVP2,2013-10-23 13:37:00,
2013-10-23 09:42:00,40.3,38.2,29.73,West,273,0.0,0.0,92,0.00,,,0.00,WUHU216DAVISVP2,2013-10-23 13:42:00,
2013-10-23 09:47:00,41.1,38.4,29.73,West,273,0.0,1.0,90,0.00,,,0.00,WUHU216DAVISVP2,2013-10-23 13:47:00,
2013-10-23 09:52:00,41.8,38.5,29.73,West,273,0.0,1.0,88,0.00,,,0.00,WUHU216DAVISVP2,2013-10-23 13:52:00,
2013-10-23 09:57:00,42.3,37.8,29.73,West,273,1.0,1.0,84,0.00,,,0.00,WUHU216DAVISVP2,2013-10-23 13:57:00,
2013-10-23 10:02:00,42.8,37.4,29.73,West,273,1.0,2.0,81,0.00,,,0.00,WUHU216DAVISVP2,2013-10-23 14:02:00,
2013-10-23 10:07:00,43.5,37.5,29.72,West,273,0.0,2.0,79,0.00,,,0.00,WUHU216DAVISVP2,2013-10-23 14:07:00,
2013-10-23 10:12:00,44.2,38.1,29.72,SW,218,0.0,3.0,79,0.00,,,0.00,WUHU216DAVISVP2,2013-10-23 14:12:00,
2013-10-23 10:17:00,44.7,37.3,29.72,SW,218,0.0,3.0,75,0.00,,,0.00,WUHU216DAVISVP2,2013-10-23 14:17:00,
2013-10-23 10:22:00,45.2,37.5,29.71,SW,219,1.6,3.0,74,0.00,,,0.00,WUHU216DAVISVP2,2013-10-23 14:22:00,
2013-10-23 10:27:00,45.6,37.4,29.71,SW,219,1.0,3.0,73,0.00,,,0.00,WUHU216DAVISVP2,2013-10-23 14:27:00,
2013-10-23 10:32:00,46.1,37.3,29.71,SW,219,1.0,3.0,71,0.00,,,0.00,WUHU216DAVISVP2,2013-10-23 14:32:00,
2013-10-23 10:37:00,46.5,37.3,29.72,SW,219,1.0,3.0,70,0.00,,,0.00,WUHU216DAVISVP2,2013-10-23 14:37:00,
2013-10-23 10:42:00,47.0,37.1,29.71,WNW,285,2.5,6.0,68,0.00,,,0.00,WUHU216DAVISVP2,2013-10-23 14:42:00,
2013-10-23 10:47:00,47.5,36.4,29.71,WSW,251,1.4,6.0,65,0.00,,,0.00,WUHU216DAVISVP2,2013-10-23 14:47:00,
2013-10-23 10:52:00,47.8,36.6,29.70,WSW,243,1.1,6.0,65,0.00,,,0.00,WUHU216DAVISVP2,2013-10-23 14:52:00,
2013-10-23 10:57:00,48.1,36.5,29.70,NNW,346,1.0,6.0,64,0.00,,,0.00,WUHU216DAVISVP2,2013-10-23 14:57:00,
2013-10-23 11:02:00,48.4,36.5,29.70,WNW,285,1.5,3.0,63,0.00,,,0.00,WUHU216DAVISVP2,2013-10-23 15:02:00,
2013-10-23 11:07:00,48.8,36.5,29.70,NNW,332,1.5,3.0,62,0.00,,,0.00,WUHU216DAVISVP2,2013-10-23 15:07:00,
2013-10-23 11:12:00,49.1,37.1,29.70,NNE,31,1.0,3.0,63,0.00,,,0.00,WUHU216DAVISVP2,2013-10-23 15:12:00,
2013-10-23 11:17:00,49.4,36.6,29.70,NW,311,2.0,4.0,61,0.00,,,0.00,WUHU216DAVISVP2,2013-10-23 15:17:00,
2013-10-23 11:22:00,49.5,35.4,29.70,WNW,298,2.8,4.0,58,0.00,,,0.00,WUHU216DAVISVP2,2013-10-23 15:22:00,
2013-10-23 11:27:00,49.7,36.4,29.70,SW,225,1.2,4.0,60,0.00,,,0.00,WUHU216DAVISVP2,2013-10-23 15:27:00,
2013-10-23 11:32:00,50.0,37.1,29.70,SSW,207,1.4,4.0,61,0.00,,,0.00,WUHU216DAVISVP2,2013-10-23 15:32:00,
2013-10-23 11:37:00,50.2,36.4,29.69,SW,230,1.0,4.0,59,0.00,,,0.00,WUHU216DAVISVP2,2013-10-23 15:37:00,
2013-10-23 11:42:00,50.3,36.1,29.69,SW,230,0.0,3.0,58,0.00,,,0.00,WUHU216DAVISVP2,2013-10-23 15:42:00,
2013-10-23 11:47:00,50.4,36.3,29.69,WSW,248,1.0,3.0,58,0.00,,,0.00,WUHU216DAVISVP2,2013-10-23 15:47:00,
2013-10-23 11:52:00,50.5,36.3,29.69,WSW,248,0.0,3.0,58,0.00,,,0.00,WUHU216DAVISVP2,2013-10-23 15:52:00,
2013-10-23 11:57:00,50.6,36.0,29.69,WSW,242,1.0,3.0,57,0.00,,,0.00,WUHU216DAVISVP2,2013-10-23 15:57:00,
2013-10-23 12:02:00,50.7,34.7,29.68,SW,224,1.5,4.0,54,0.00,,,0.00,WUHU216DAVISVP2,2013-10-23 16:02:00,
2013-10-23 12:07:00,50.8,35.3,29.68,SW,224,1.0,4.0,55,0.00,,,0.00,WUHU216DAVISVP2,2013-10-23 16:07:00,
2013-10-23 12:12:00,51.1,35.5,29.67,North,9,3.0,4.0,55,0.00,,,0.00,WUHU216DAVISVP2,2013-10-23 16:12:00,
2013-10-23 12:17:00,51.2,35.2,29.67,North,5,1.8,4.0,54,0.00,,,0.00,WUHU216DAVISVP2,2013-10-23 16:17:00,
2013-10-23 12:22:00,51.1,35.1,29.66,North,355,1.3,3.0,54,0.00,,,0.00,WUHU216DAVISVP2,2013-10-23 16:22:00,
2013-10-23 12:27:00,51.1,34.6,29.66,SW,222,3.0,5.0,53,0.00,,,0.00,WUHU216DAVISVP2,2013-10-23 16:27:00,
2013-10-23 12:32:00,51.1,35.0,29.66,SW,225,1.0,5.0,54,0.00,,,0.00,WUHU216DAVISVP2,2013-10-23 16:32:00,
2013-10-23 12:37:00,51.2,34.2,29.66,WNW,296,1.2,5.0,52,0.00,,,0.00,WUHU216DAVISVP2,2013-10-23 16:37:00,
2013-10-23 12:42:00,51.4,34.3,29.65,West,278,1.4,5.0,52,0.00,,,0.00,WUHU216DAVISVP2,2013-10-23 16:42:00,
2013-10-23 12:47:00,51.5,34.4,29.65,North,5,3.0,3.0,52,0.00,,,0.00,WUHU216DAVISVP2,2013-10-23 16:47:00,
2013-10-23 12:52:00,51.6,34.5,29.65,North,0,1.2,3.0,52,0.00,,,0.00,WUHU216DAVISVP2,2013-10-23 16:52:00,
2013-10-23 12:57:00,51.7,34.6,29.65,North,360,0.0,3.0,52,0.00,,,0.00,WUHU216DAVISVP2,2013-10-23 16:57:00,
2013-10-23 13:02:00,52.0,35.4,29.65,WNW,300,1.2,3.0,53,0.00,,,0.00,WUHU216DAVISVP2,2013-10-23 17:02:00,
2013-10-23 13:07:00,52.0,34.4,29.65,WNW,290,1.0,2.0,51,0.00,,,0.00,WUHU216DAVISVP2,2013-10-23 17:07:00,
2013-10-23 13:12:00,52.0,34.4,29.65,WNW,290,1.0,2.0,51,0.00,,,0.00,WUHU216DAVISVP2,2013-10-23 17:12:00,
2013-10-23 13:17:00,52.0,34.9,29.65,WNW,290,1.0,2.0,52,0.00,,,0.00,WUHU216DAVISVP2,2013-10-23 17:17:00,
2013-10-23 13:22:00,52.2,35.1,29.64,WNW,284,1.0,2.0,52,0.00,,,0.00,WUHU216DAVISVP2,2013-10-23 17:22:00,
2013-10-23 13:27:00,52.2,34.6,29.64,SSW,198,1.9,3.0,51,0.00,,,0.00,WUHU216DAVISVP2,2013-10-23 17:27:00,
2013-10-23 13:32:00,52.2,34.6,29.63,SSW,198,0.0,3.0,51,0.00,,,0.00,WUHU216DAVISVP2,2013-10-23 17:32:00,
2013-10-23 13:37:00,52.2,34.1,29.63,SSW,198,1.0,3.0,50,0.00,,,0.00,WUHU216DAVISVP2,2013-10-23 17:37:00,
2013-10-23 13:42:00,52.3,34.2,29.62,NE,41,3.0,3.0,50,0.00,,,0.00,WUHU216DAVISVP2,2013-10-23 17:42:00,
2013-10-23 13:47:00,52.2,33.6,29.62,North,9,2.0,3.0,49,0.00,,,0.00,WUHU216DAVISVP2,2013-10-23 17:47:00,
2013-10-23 13:52:00,52.1,34.0,29.61,NNE,32,2.0,3.0,50,0.00,,,0.00,WUHU216DAVISVP2,2013-10-23 17:52:00,
2013-10-23 13:57:00,51.9,33.8,29.61,NNE,32,1.4,4.0,50,0.00,,,0.00,WUHU216DAVISVP2,2013-10-23 17:57:00,
2013-10-23 14:02:00,52.0,34.4,29.60,NE,51,1.4,4.0,51,0.00,,,0.00,WUHU216DAVISVP2,2013-10-23 18:02:00,
2013-10-23 14:07:00,52.3,34.7,29.60,NNE,24,1.0,4.0,51,0.00,,,0.00,WUHU216DAVISVP2,2013-10-23 18:07:00,
2013-10-23 14:12:00,52.6,33.4,29.59,ENE,69,1.5,4.0,48,0.00,,,0.00,WUHU216DAVISVP2,2013-10-23 18:12:00,
2013-10-23 14:17:00,52.7,33.5,29.59,East,89,1.5,4.0,48,0.00,,,0.00,WUHU216DAVISVP2,2013-10-23 18:17:00,
2013-10-23 14:22:00,52.8,34.2,29.59,East,89,0.0,4.0,49,0.00,,,0.00,WUHU216DAVISVP2,2013-10-23 18:22:00,
2013-10-23 14:27:00,52.9,33.7,29.58,ENE,77,1.0,4.0,48,0.00,,,0.00,WUHU216DAVISVP2,2013-10-23 18:27:00,
2013-10-23 14:32:00,53.2,33.5,29.58,East,80,1.0,3.0,47,0.00,,,0.00,WUHU216DAVISVP2,2013-10-23 18:32:00,
2013-10-23 14:37:00,53.7,31.7,29.58,SW,233,1.5,3.0,43,0.00,,,0.00,WUHU216DAVISVP2,2013-10-23 18:37:00,
2013-10-23 14:42:00,53.8,31.2,29.58,SW,234,0.0,3.0,42,0.00,,,0.00,WUHU216DAVISVP2,2013-10-23 18:42:00,
2013-10-23 14:47:00,53.8,32.3,29.58,West,271,2.1,4.0,44,0.00,,,0.00,WUHU216DAVISVP2,2013-10-23 18:47:00,
2013-10-23 14:52:00,53.8,31.7,29.58,SSW,213,1.4,4.0,43,0.00,,,0.00,WUHU216DAVISVP2,2013-10-23 18:52:00,
2013-10-23 14:57:00,53.7,31.6,29.58,NW,312,1.7,4.0,43,0.00,,,0.00,WUHU216DAVISVP2,2013-10-23 18:57:00,
2013-10-23 15:02:00,53.5,31.4,29.58,ENE,59,1.9,4.0,43,0.00,,,0.00,WUHU216DAVISVP2,2013-10-23 19:02:00,
2013-10-23 15:07:00,53.5,32.0,29.58,West,266,2.0,4.0,44,0.00,,,0.00,WUHU216DAVISVP2,2013-10-23 19:07:00,
2013-10-23 15:12:00,53.3,31.2,29.57,West,276,1.0,4.0,43,0.00,,,0.00,WUHU216DAVISVP2,2013-10-23 19:12:00,
2013-10-23 15:17:00,53.7,31.0,29.56,North,360,1.0,4.0,42,0.00,,,0.00,WUHU216DAVISVP2,2013-10-23 19:17:00,
2013-10-23 15:22:00,53.9,29.9,29.56,SSW,211,1.3,3.0,40,0.00,,,0.00,WUHU216DAVISVP2,2013-10-23 19:22:00,
2013-10-23 15:27:00,53.6,30.3,29.56,NNE,21,1.8,3.0,41,0.00,,,0.00,WUHU216DAVISVP2,2013-10-23 19:27:00,
2013-10-23 15:32:00,53.3,30.8,29.57,NW,317,1.0,4.0,42,0.00,,,0.00,WUHU216DAVISVP2,2013-10-23 19:32:00,
2013-10-23 15:37:00,53.2,32.4,29.58,West,278,1.4,4.0,45,0.00,,,0.00,WUHU216DAVISVP2,2013-10-23 19:37:00,
2013-10-23 15:42:00,53.0,30.5,29.58,WSW,252,0.0,4.0,42,0.00,,,0.00,WUHU216DAVISVP2,2013-10-23 19:42:00,
2013-10-23 15:47:00,53.0,32.2,29.58,WSW,257,0.0,4.0,45,0.00,,,0.00,WUHU216DAVISVP2,2013-10-23 19:47:00,
2013-10-23 15:52:00,53.0,32.1,29.58,WSW,257,1.0,4.0,45,0.00,,,0.00,WUHU216DAVISVP2,2013-10-23 19:52:00,
2013-10-23 15:57:00,52.9,32.6,29.58,SW,232,1.0,4.0,46,0.00,,,0.00,WUHU216DAVISVP2,2013-10-23 19:57:00,
2013-10-23 16:02:00,52.8,32.5,29.58,SW,232,1.0,4.0,46,0.00,,,0.00,WUHU216DAVISVP2,2013-10-23 20:02:00,
2013-10-23 16:07:00,52.8,34.1,29.58,SW,234,0.0,2.0,49,0.00,,,0.00,WUHU216DAVISVP2,2013-10-23 20:07:00,
2013-10-23 16:12:00,52.8,32.5,29.57,SW,234,1.5,2.0,46,0.00,,,0.00,WUHU216DAVISVP2,2013-10-23 20:12:00,
2013-10-23 16:17:00,52.8,34.1,29.57,SW,234,1.0,2.0,49,0.00,,,0.00,WUHU216DAVISVP2,2013-10-23 20:17:00,
2013-10-23 16:22:00,52.6,33.4,29.57,SW,234,0.0,2.0,48,0.00,,,0.00,WUHU216DAVISVP2,2013-10-23 20:22:00,
2013-10-23 16:27:00,52.6,33.9,29.57,SW,234,0.0,2.0,49,0.00,,,0.00,WUHU216DAVISVP2,2013-10-23 20:27:00,
2013-10-23 16:32:00,52.3,35.2,29.58,SW,234,0.0,1.0,52,0.00,,,0.00,WUHU216DAVISVP2,2013-10-23 20:32:00,
2013-10-23 16:37:00,52.1,34.0,29.58,SW,234,0.0,2.0,50,0.00,,,0.00,WUHU216DAVISVP2,2013-10-23 20:37:00,
2013-10-23 16:42:00,52.0,34.4,29.57,SW,234,0.0,2.0,51,0.00,,,0.00,WUHU216DAVISVP2,2013-10-23 20:42:00,
2013-10-23 16:47:00,51.9,35.3,29.58,SW,234,0.0,2.0,53,0.00,,,0.00,WUHU216DAVISVP2,2013-10-23 20:47:00,
2013-10-23 16:52:00,51.6,35.0,29.58,SW,234,0.0,2.0,53,0.00,,,0.00,WUHU216DAVISVP2,2013-10-23 20:52:00,
2013-10-23 16:57:00,51.4,35.3,29.58,SW,234,0.0,0.0,54,0.00,,,0.00,WUHU216DAVISVP2,2013-10-23 20:57:00,
2013-10-23 17:02:00,51.1,36.0,29.58,SW,234,0.0,0.0,56,0.00,,,0.00,WUHU216DAVISVP2,2013-10-23 21:02:00,
2013-10-23 17:07:00,50.9,36.7,29.58,SW,234,0.0,0.0,58,0.00,,,0.00,WUHU216DAVISVP2,2013-10-23 21:07:00,
2013-10-23 17:12:00,50.6,37.7,29.57,SW,234,0.0,0.0,61,0.00,,,0.00,WUHU216DAVISVP2,2013-10-23 21:12:00,
2013-10-23 17:17:00,50.2,37.4,29.57,SW,234,0.0,0.0,61,0.00,,,0.00,WUHU216DAVISVP2,2013-10-23 21:17:00,
2013-10-23 17:22:00,49.9,37.5,29.57,SW,234,0.0,0.0,62,0.00,,,0.00,WUHU216DAVISVP2,2013-10-23 21:22:00,
2013-10-23 17:27:00,49.6,37.6,29.57,SW,234,0.0,0.0,63,0.00,,,0.00,WUHU216DAVISVP2,2013-10-23 21:27:00,
2013-10-23 17:32:00,49.2,38.0,29.58,SW,234,1.0,1.0,65,0.00,,,0.00,WUHU216DAVISVP2,2013-10-23 21:32:00,
2013-10-23 17:37:00,48.8,38.0,29.59,SW,234,1.0,1.0,66,0.00,,,0.00,WUHU216DAVISVP2,2013-10-23 21:37:00,
2013-10-23 17:42:00,48.5,38.5,29.58,SW,234,0.0,1.0,68,0.00,,,0.00,WUHU216DAVISVP2,2013-10-23 21:42:00,
2013-10-23 17:47:00,48.1,38.5,29.59,SW,234,0.0,1.0,69,0.00,,,0.00,WUHU216DAVISVP2,2013-10-23 21:47:00,
2013-10-23 17:52:00,47.8,38.6,29.59,SW,234,0.0,1.0,70,0.00,,,0.00,WUHU216DAVISVP2,2013-10-23 21:52:00,
2013-10-23 17:57:00,47.5,38.7,29.58,SW,234,0.0,0.0,71,0.00,,,0.00,WUHU216DAVISVP2,2013-10-23 21:57:00,
2013-10-23 18:02:00,47.2,38.4,29.58,SW,234,0.0,0.0,71,0.00,,,0.00,WUHU216DAVISVP2,2013-10-23 22:02:00,
2013-10-23 18:07:00,47.0,38.5,29.59,SW,234,0.0,0.0,72,0.00,,,0.00,WUHU216DAVISVP2,2013-10-23 22:07:00,
2013-10-23 18:12:00,46.6,38.1,29.59,SW,234,0.0,0.0,72,0.00,,,0.00,WUHU216DAVISVP2,2013-10-23 22:12:00,
2013-10-23 18:17:00,46.2,38.4,29.59,SW,234,0.0,0.0,74,0.00,,,0.00,WUHU216DAVISVP2,2013-10-23 22:17:00,
2013-10-23 18:22:00,45.8,38.4,29.59,SW,234,0.0,0.0,75,0.00,,,0.00,WUHU216DAVISVP2,2013-10-23 22:22:00,
2013-10-23 18:27:00,45.5,38.4,29.59,SW,234,0.0,0.0,76,0.00,,,0.00,WUHU216DAVISVP2,2013-10-23 22:27:00,
2013-10-23 18:32:00,45.2,38.5,29.59,SW,234,0.0,0.0,77,0.00,,,0.00,WUHU216DAVISVP2,2013-10-23 22:32:00,
2013-10-23 18:37:00,44.9,38.5,29.59,SW,234,0.0,0.0,78,0.00,,,0.00,WUHU216DAVISVP2,2013-10-23 22:37:00,
2013-10-23 18:42:00,44.6,38.5,29.59,SW,234,0.0,0.0,79,0.00,,,0.00,WUHU216DAVISVP2,2013-10-23 22:42:00,
2013-10-23 18:47:00,44.3,38.2,29.59,SW,234,0.0,0.0,79,0.00,,,0.00,WUHU216DAVISVP2,2013-10-23 22:47:00,
2013-10-23 18:52:00,44.0,38.6,29.59,SW,234,0.0,0.0,81,0.00,,,0.00,WUHU216DAVISVP2,2013-10-23 22:52:00,
2013-10-23 18:57:00,43.7,38.3,29.59,SW,234,0.0,0.0,81,0.00,,,0.00,WUHU216DAVISVP2,2013-10-23 22:57:00,
2013-10-23 19:02:00,43.5,38.4,29.59,SW,234,0.0,0.0,82,0.00,,,0.00,WUHU216DAVISVP2,2013-10-23 23:02:00,
2013-10-23 19:07:00,43.3,38.2,29.59,SW,234,0.0,0.0,82,0.00,,,0.00,WUHU216DAVISVP2,2013-10-23 23:07:00,
2013-10-23 19:12:00,43.1,38.3,29.59,SW,234,0.0,0.0,83,0.00,,,0.00,WUHU216DAVISVP2,2013-10-23 23:12:00,
2013-10-23 19:17:00,42.8,38.3,29.59,SW,234,0.0,0.0,84,0.00,,,0.00,WUHU216DAVISVP2,2013-10-23 23:17:00,
2013-10-23 19:22:00,42.5,37.7,29.59,SW,234,0.0,0.0,83,0.00,,,0.00,WUHU216DAVISVP2,2013-10-23 23:22:00,
2013-10-23 19:27:00,42.2,37.7,29.59,SW,234,0.0,0.0,84,0.00,,,0.00,WUHU216DAVISVP2,2013-10-23 23:27:00,
2013-10-23 19:32:00,42.0,37.8,29.59,SW,234,0.0,0.0,85,0.00,,,0.00,WUHU216DAVISVP2,2013-10-23 23:32:00,
2013-10-23 19:37:00,41.7,37.5,29.59,SW,234,0.0,0.0,85,0.00,,,0.00,WUHU216DAVISVP2,2013-10-23 23:37:00,
2013-10-23 19:42:00,41.4,37.2,29.59,SW,234,0.0,0.0,85,0.00,,,0.00,WUHU216DAVISVP2,2013-10-23 23:42:00,
2013-10-23 19:47:00,41.1,37.2,29.59,SW,234,0.0,0.0,86,0.00,,,0.00,WUHU216DAVISVP2,2013-10-23 23:47:00,
2013-10-23 19:52:00,40.7,36.8,29.59,SW,234,0.0,0.0,86,0.00,,,0.00,WUHU216DAVISVP2,2013-10-23 23:52:00,
2013-10-23 19:57:00,40.4,36.5,29.59,SW,234,0.0,0.0,86,0.00,,,0.00,WUHU216DAVISVP2,2013-10-23 23:57:00,
2013-10-23 20:02:00,40.1,36.5,29.59,SW,234,0.0,0.0,87,0.00,,,0.00,WUHU216DAVISVP2,2013-10-24 00:02:00,
2013-10-23 20:07:00,39.9,36.6,29.60,SW,234,0.0,0.0,88,0.00,,,0.00,WUHU216DAVISVP2,2013-10-24 00:07:00,
2013-10-23 20:12:00,39.7,36.7,29.60,SW,234,0.0,0.0,89,0.00,,,0.00,WUHU216DAVISVP2,2013-10-24 00:12:00,
2013-10-23 20:17:00,39.6,36.6,29.60,SW,234,0.0,0.0,89,0.00,,,0.00,WUHU216DAVISVP2,2013-10-24 00:17:00,
2013-10-23 20:22:00,39.4,36.4,29.60,SW,234,0.0,0.0,89,0.00,,,0.00,WUHU216DAVISVP2,2013-10-24 00:22:00,
2013-10-23 20:27:00,39.3,36.3,29.60,SW,234,0.0,0.0,89,0.00,,,0.00,WUHU216DAVISVP2,2013-10-24 00:27:00,
2013-10-23 20:32:00,39.2,36.5,29.60,SW,234,0.0,0.0,90,0.00,,,0.00,WUHU216DAVISVP2,2013-10-24 00:32:00,
2013-10-23 20:37:00,39.3,36.6,29.60,SW,234,0.0,0.0,90,0.00,,,0.00,WUHU216DAVISVP2,2013-10-24 00:37:00,
2013-10-23 20:42:00,39.2,36.5,29.60,SW,234,0.0,0.0,90,0.00,,,0.00,WUHU216DAVISVP2,2013-10-24 00:42:00,
2013-10-23 20:47:00,39.1,36.4,29.60,SW,234,0.0,0.0,90,0.00,,,0.00,WUHU216DAVISVP2,2013-10-24 00:47:00,
2013-10-23 20:52:00,39.1,36.4,29.60,SW,234,0.0,0.0,90,0.00,,,0.00,WUHU216DAVISVP2,2013-10-24 00:52:00,
2013-10-23 20:57:00,39.0,36.3,29.60,SW,234,0.0,0.0,90,0.00,,,0.00,WUHU216DAVISVP2,2013-10-24 00:57:00,
2013-10-23 21:02:00,38.9,36.2,29.60,SW,234,0.0,0.0,90,0.00,,,0.00,WUHU216DAVISVP2,2013-10-24 01:02:00,
2013-10-23 21:07:00,38.9,36.5,29.60,SW,234,0.0,0.0,91,0.00,,,0.00,WUHU216DAVISVP2,2013-10-24 01:07:00,
2013-10-23 21:12:00,39.0,36.5,29.60,SW,234,0.0,0.0,91,0.00,,,0.00,WUHU216DAVISVP2,2013-10-24 01:12:00,
2013-10-23 21:17:00,39.1,36.6,29.60,SW,234,0.0,0.0,91,0.00,,,0.00,WUHU216DAVISVP2,2013-10-24 01:17:00,
2013-10-23 21:22:00,39.1,36.6,29.60,SW,234,0.0,0.0,91,0.00,,,0.00,WUHU216DAVISVP2,2013-10-24 01:22:00,
2013-10-23 21:27:00,39.1,36.6,29.60,SW,234,0.0,0.0,91,0.00,,,0.00,WUHU216DAVISVP2,2013-10-24 01:27:00,
2013-10-23 21:32:00,39.2,37.0,29.61,SW,234,0.0,0.0,92,0.00,,,0.00,WUHU216DAVISVP2,2013-10-24 01:32:00,
2013-10-23 21:37:00,39.3,36.8,29.61,SW,234,0.0,0.0,91,0.00,,,0.00,WUHU216DAVISVP2,2013-10-24 01:37:00,
2013-10-23 21:42:00,39.3,36.8,29.61,SW,234,0.0,0.0,91,0.00,,,0.00,WUHU216DAVISVP2,2013-10-24 01:42:00,
2013-10-23 21:47:00,39.2,36.5,29.61,SW,234,0.0,0.0,90,0.00,,,0.00,WUHU216DAVISVP2,2013-10-24 01:47:00,
2013-10-23 21:52:00,39.3,36.8,29.61,SW,234,0.0,0.0,91,0.00,,,0.00,WUHU216DAVISVP2,2013-10-24 01:52:00,
2013-10-23 21:57:00,39.3,36.8,29.61,SW,234,0.0,0.0,91,0.00,,,0.00,WUHU216DAVISVP2,2013-10-24 01:57:00,
2013-10-23 22:02:00,39.3,36.8,29.61,SW,234,0.0,0.0,91,0.00,,,0.00,WUHU216DAVISVP2,2013-10-24 02:02:00,
2013-10-23 22:07:00,39.4,37.2,29.61,SW,234,0.0,0.0,92,0.00,,,0.00,WUHU216DAVISVP2,2013-10-24 02:07:00,
2013-10-23 22:12:00,39.4,37.2,29.61,SW,234,0.0,0.0,92,0.00,,,0.00,WUHU216DAVISVP2,2013-10-24 02:12:00,
2013-10-23 22:17:00,39.4,36.9,29.61,SW,234,0.0,0.0,91,0.00,,,0.00,WUHU216DAVISVP2,2013-10-24 02:17:00,
2013-10-23 22:22:00,39.4,36.9,29.61,SW,234,0.0,0.0,91,0.00,,,0.00,WUHU216DAVISVP2,2013-10-24 02:22:00,
2013-10-23 22:27:00,39.5,37.0,29.61,SW,234,0.0,0.0,91,0.00,,,0.00,WUHU216DAVISVP2,2013-10-24 02:27:00,
2013-10-23 22:32:00,39.6,37.1,29.61,SW,234,0.0,1.0,91,0.00,,,0.00,WUHU216DAVISVP2,2013-10-24 02:32:00,
2013-10-23 22:37:00,39.7,37.2,29.61,SW,234,0.0,1.0,91,0.00,,,0.00,WUHU216DAVISVP2,2013-10-24 02:37:00,
2013-10-23 22:42:00,39.8,37.1,29.62,SW,234,0.0,1.0,90,0.00,,,0.00,WUHU216DAVISVP2,2013-10-24 02:42:00,
2013-10-23 22:47:00,40.0,37.3,29.62,SW,234,1.0,1.0,90,0.00,,,0.00,WUHU216DAVISVP2,2013-10-24 02:47:00,
2013-10-23 22:52:00,40.1,37.4,29.62,SW,234,0.0,1.0,90,0.00,,,0.00,WUHU216DAVISVP2,2013-10-24 02:52:00,
2013-10-23 22:57:00,40.1,37.1,29.62,SW,234,0.0,1.0,89,0.00,,,0.00,WUHU216DAVISVP2,2013-10-24 02:57:00,
2013-10-23 23:02:00,40.2,36.9,29.62,SW,234,0.0,1.0,88,0.00,,,0.00,WUHU216DAVISVP2,2013-10-24 03:02:00,
2013-10-23 23:07:00,40.3,36.7,29.62,SW,234,0.0,0.0,87,0.00,,,0.00,WUHU216DAVISVP2,2013-10-24 03:07:00,
2013-10-23 23:12:00,40.5,36.9,29.62,SW,234,0.0,0.0,87,0.00,,,0.00,WUHU216DAVISVP2,2013-10-24 03:12:00,
2013-10-23 23:17:00,40.7,37.1,29.62,SW,234,0.0,0.0,87,0.00,,,0.00,WUHU216DAVISVP2,2013-10-24 03:17:00,
2013-10-23 23:22:00,40.9,37.0,29.62,SW,234,0.0,0.0,86,0.00,,,0.00,WUHU216DAVISVP2,2013-10-24 03:22:00,
2013-10-23 23:27:00,41.1,36.9,29.62,SW,234,0.0,0.0,85,0.00,,,0.00,WUHU216DAVISVP2,2013-10-24 03:27:00,
2013-10-23 23:32:00,41.3,36.8,29.62,SW,234,0.0,0.0,84,0.00,,,0.00,WUHU216DAVISVP2,2013-10-24 03:32:00,
2013-10-23 23:37:00,41.5,36.7,29.62,SW,234,0.0,0.0,83,0.00,,,0.00,WUHU216DAVISVP2,2013-10-24 03:37:00,
2013-10-23 23:42:00,41.7,37.2,29.62,SW,234,0.0,0.0,84,0.00,,,0.00,WUHU216DAVISVP2,2013-10-24 03:42:00,
2013-10-23 23:47:00,41.8,37.0,29.63,SW,234,0.0,0.0,83,0.00,,,0.00,WUHU216DAVISVP2,2013-10-24 03:47:00,
2013-10-23 23:52:00,41.9,37.1,29.63,SW,234,0.0,0.0,83,0.00,,,0.00,WUHU216DAVISVP2,2013-10-24 03:52:00,
2013-10-23 23:57:00,42.0,37.5,29.63,SW,234,0.0,0.0,84,0.00,,,0.00,WUHU216DAVISVP2,2013-10-24 03:57:00,